Latest Coastal Weather Observations for Cape Leeuwin

IDW60701

Issued at 6:42 pm WST Wednesday 5 August 2015 (issued every 10 minutes, with the page automatically refreshed every 10 minutes)

About coastal observations | Map of coastal stations | Coastal observations for WA | Marine services | Other Formats
Station Details ID: 009518 Name: CAPE LEEUWIN Lat: -34.37 Lon: 115.14 Height: 13.0 m
Data from the previous 72 hours. | See also: Recent months at Cape Leeuwin
Date/Time
WST
Temp

°C
Wind Pressure Rain
since 9am
mm
Weather Cloud Vis
km
Sea
Height
m
Swell
Dir
 
Speed
knots
Gust
knots
hPa Trend Height
m
Period
s
Dir
05/06:30pm 13.5 NE 10 12 1027.2 - 0.0 - - - - - - -
05/06:00pm 14.1 NE 11 13 1027.0 - 0.0 - - - - - - -
05/05:30pm 14.8 ENE 9 13 1026.8 - 0.0 - - - - - - -
05/05:00pm 15.9 ESE 11 13 1026.7 - 0.0 - - - - - - -
05/04:30pm 16.3 ESE 10 13 1026.7 - 0.0 - - - - - - -
05/04:00pm 16.6 ESE 9 11 1026.9 - 0.0 - - - - - - -
05/03:30pm 16.7 ESE 8 10 1027.2 - 0.0 - - - - - - -
05/03:00pm 16.9 ESE 9 10 1027.3 - 0.0 - - - - - - -
05/02:30pm 17.3 E 10 11 1027.4 - 0.0 - - - - - - -
05/02:00pm 16.0 E 9 10 1027.6 - 0.0 - - - - - - -
05/01:30pm 16.6 E 9 11 1028.0 - 0.0 - - - - - - -
05/01:00pm 15.4 E 10 11 1028.4 - 0.0 - - - - - - -
05/12:30pm 15.2 E 11 13 1028.8 - 0.0 - - - - - - -
05/12:00pm 15.1 ENE 11 14 1029.4 - 0.0 - - - - - - -
05/11:30am 15.2 ENE 11 14 1030.0 - 0.0 - - - - - - -
05/11:00am 14.7 NE 11 15 1030.5 - 0.0 - - - - - - -
05/10:30am 13.8 NE 9 12 1030.9 - 0.0 - - - - - - -
05/10:00am 12.8 NE 13 17 1031.0 - 0.0 - - - - - - -
05/09:30am 12.2 ENE 13 17 1031.1 - 0.0 - - - - - - -
05/09:00am 11.4 ENE 13 15 1031.2 - 0.2 - - - - - - -
05/08:30am 10.7 NE 13 16 1031.1 - 0.2 - - - - - - -
05/08:00am 10.0 NE 13 16 1031.0 - 0.2 - - - - - - -
05/07:30am 9.6 NE 13 16 1030.8 - 0.2 - - - - - - -
05/07:00am 10.4 ENE 12 14 1030.9 - 0.2 - - - - - - -
05/06:30am 10.9 ENE 11 12 1030.9 - 0.0 - - - - - - -
05/06:00am 10.5 ENE 11 12 1030.9 - 0.0 - - - - - - -
05/05:30am 10.3 ENE 10 12 1030.8 - 0.0 - - - - - - -
05/05:00am 10.4 ENE 11 13 1030.8 - 0.0 - - - - - - -
05/04:30am 10.4 ENE 12 13 1030.9 - 0.0 - - - - - - -
05/04:00am 10.3 NE 13 15 1030.9 - 0.0 - - - - - - -
05/03:30am 10.2 NE 12 15 1030.9 - 0.0 - - - - - - -
05/03:00am 10.2 NE 12 15 1031.4 - 0.0 - - - - - - -
05/02:30am 10.2 NE 12 14 1031.8 - 0.0 - - - - - - -
05/02:00am 10.6 ENE 12 14 1031.9 - 0.0 - - - - - - -
05/01:30am 11.2 ENE 12 15 1032.0 - 0.0 - - - - - - -
05/01:00am 11.5 NE 12 15 1032.2 - 0.0 - - - - - - -
05/12:30am 12.1 ENE 12 15 1032.3 - 0.0 - - - - - - -
05/12:00am 13.5 ENE 14 17 1032.5 - 0.0 - - - - - - -
 
Date/Time
WST
Temp

°C
Wind Pressure Rain
since 9am
mm
Weather Cloud Vis
km
Sea
Height
m
Swell
Dir
 
Speed
knots
Gust
knots
hPa Trend Height
m
Period
s
Dir
04/11:30pm 14.0 E 16 19 1032.6 - 0.0 - - - - - - -
04/11:00pm 14.0 E 18 20 1032.8 - 0.0 - - - - - - -
04/10:30pm 14.1 E 17 20 1033.0 - 0.0 - - - - - - -
04/10:00pm 14.2 E 16 20 1033.1 - 0.0 - - - - - - -
04/09:30pm 14.5 E 16 20 1033.2 - 0.0 - - - - - - -
04/09:00pm 14.8 ESE 13 17 1033.3 - 0.0 - - - - - - -
04/08:30pm 14.9 ESE 14 18 1033.4 - 0.0 - - - - - - -
04/08:00pm 14.8 ESE 15 19 1033.2 - 0.0 - - - - - - -
04/07:30pm 14.6 SE 15 18 1033.2 - 0.0 - - - - - - -
04/07:00pm 14.8 SE 14 19 1033.1 - 0.0 - - - - - - -
04/06:30pm 14.7 SE 14 18 1033.0 - 0.0 - - - - - - -
04/06:00pm 14.6 SE 14 18 1032.8 - 0.0 - - - - - - -
04/05:30pm 14.6 SE 14 18 1032.6 - 0.0 - - - - - - -
04/05:00pm 15.0 SE 14 18 1032.3 - 0.0 - - - - - - -
04/04:30pm 15.4 SE 14 17 1032.4 - 0.0 - - - - - - -
04/04:00pm 15.6 SE 14 17 1032.3 - 0.0 - - - - - - -
04/03:30pm 16.2 SE 13 17 1032.4 - 0.0 - - - - - - -
04/03:00pm 16.2 SE 12 16 1032.5 - 0.0 - - - - - - -
04/02:30pm 16.2 SE 12 15 1032.7 - 0.0 - - - - - - -
04/02:00pm 16.2 ESE 10 14 1032.9 - 0.0 - - - - - - -
04/01:30pm 16.1 ESE 11 15 1033.1 - 0.0 - - - - - - -
04/01:00pm 15.9 ESE 13 16 1033.3 - 0.0 - - - - - - -
04/12:30pm 15.8 E 12 15 1033.8 - 0.0 - - - - - - -
04/12:00pm 15.1 E 12 15 1034.2 - 0.0 - - - - - - -
04/11:30am 14.9 ENE 11 13 1034.6 - 0.0 - - - - - - -
04/11:00am 14.3 E 10 12 1034.9 - 0.0 - - - - - - -
04/10:30am 14.0 ENE 9 12 1035.2 - 0.0 - - - - - - -
04/10:00am 13.6 ENE 10 12 1035.3 - 0.0 - - - - - - -
04/09:30am 13.7 ENE 11 14 1035.3 - 0.0 - - - - - - -
04/09:00am 12.8 ENE 10 13 1035.3 - 1.4 - - - - - - -
04/08:30am 12.4 ENE 9 11 1035.2 - 1.4 - - - - - - -
04/08:00am 11.8 NE 7 9 1035.1 - 1.4 - - - - - - -
04/07:30am 11.8 NE 8 10 1034.9 - 1.4 - - - - - - -
04/07:00am 11.9 NE 9 12 1034.8 - 1.4 - - - - - - -
04/06:30am 12.2 NE 7 9 1034.5 - 1.4 - - - - - - -
04/06:00am 12.5 NE 8 11 1034.4 - 1.4 Recent precip. - - - - - -
04/05:30am 12.2 NE 9 12 1034.2 - 1.4 - - - - - - -
04/05:00am 12.4 ENE 8 12 1034.0 - 1.0 - - - - - - -
04/04:30am 12.2 NE 8 10 1034.1 - 1.0 - - - - - - -
04/04:00am 12.3 ENE 6 8 1034.0 - 1.0 - - - - - - -
04/03:30am 13.1 ENE 7 10 1034.0 - 1.0 - - - - - - -
04/03:00am 13.6 E 8 11 1034.0 - 0.8 - - - - - - -
04/02:30am 13.6 ENE 7 10 1034.1 - 0.8 - - - - - - -
04/02:00am 14.3 ESE 12 15 1034.0 - 0.8 - - - - - - -
04/01:30am 14.6 ESE 10 14 1034.1 - 0.8 - - - - - - -
04/01:00am 14.0 ESE 9 13 1034.3 - 0.6 - - - - - - -
04/12:30am 14.0 SE 13 16 1034.2 - 0.6 - - - - - - -
04/12:00am 14.0 SE 13 16 1034.1 - 0.6 Recent precip. - - - - - -
 
Date/Time
WST
Temp

°C
Wind Pressure Rain
since 9am
mm
Weather Cloud Vis
km
Sea
Height
m
Swell
Dir
 
Speed
knots
Gust
knots
hPa Trend Height
m
Period
s
Dir
03/11:30pm 13.6 S 11 17 1034.2 - 0.2 - - - - - - -
03/11:00pm 13.5 SSE 15 17 1034.3 - 0.2 - - - - - - -
03/10:30pm 14.4 SSE 14 19 1034.4 - 0.2 - - - - - - -
03/10:00pm 14.4 SE 10 15 1034.7 - 0.2 - - - - - - -
03/09:30pm 14.1 ESE 10 14 1034.9 - 0.2 - - - - - - -
03/09:00pm 14.3 SE 11 15 1035.0 - 0.0 - - - - - - -
03/08:30pm 14.6 SE 12 16 1034.9 - 0.0 - - - - - - -
03/08:00pm 14.3 SE 12 15 1034.7 - 0.0 - - - - - - -
03/07:30pm 14.7 SSE 12 16 1034.5 - 0.0 - - - - - - -
03/07:00pm 14.3 SE 9 12 1034.4 - 0.0 - - - - - - -
03/06:30pm 14.1 SE 11 14 1034.3 - 0.0 - - - - - - -
03/06:00pm 14.2 S 11 15 1034.2 - 0.0 - - - - - - -
03/05:30pm 14.5 SSW 7 9 1033.9 - 0.0 - - - - - - -
03/05:00pm 15.0 SSW 7 10 1033.9 - 0.0 - - - - - - -
03/04:30pm 15.5 S 6 7 1034.1 - 0.0 - - - - - - -
03/04:00pm 16.3 S 6 9 1034.0 - 0.0 - - - - - - -
03/03:30pm 16.7 S 6 8 1033.8 - 0.0 - - - - - - -
03/03:00pm 16.4 S 5 7 1033.7 - 0.0 - - - - - - -
03/02:30pm 16.8 S 6 7 1033.9 - 0.0 - - - - - - -
03/02:00pm 16.4 S 5 7 1034.2 - 0.0 - - - - - - -
03/01:30pm 16.5 S 5 6 1034.3 - 0.0 - - - - - - -
03/01:00pm 16.2 ESE 4 6 1034.4 - 0.0 - - - - - - -
03/12:30pm 15.6 E 5 6 1034.8 - 0.0 - - - - - - -
03/12:00pm 15.0 E 6 7 1035.3 - 0.0 - - - - - - -
03/11:30am 16.4 E 4 6 1035.7 - 0.0 - - - - - - -
03/11:00am 16.5 NE 6 8 1035.8 - 0.0 - - - - - - -
03/10:30am 15.6 NNE 7 9 1035.9 - 0.0 - - - - - - -
03/10:00am 14.6 NNE 9 12 1035.9 - 0.0 - - - - - - -
03/09:30am 13.6 NNE 10 14 1035.9 - 0.0 - - - - - - -
03/09:00am 13.3 NE 9 13 1035.8 - 0.2 - - - - - - -
03/08:30am 12.9 NE 8 10 1035.7 - 0.2 - - - - - - -
03/08:00am 11.8 NNE 9 11 1035.7 - 0.2 - - - - - - -
03/07:30am 11.1 NNE 10 11 1035.3 - 0.2 - - - - - - -
03/07:00am 10.7 NNE 9 11 1035.0 - 0.2 - - - - - - -
03/06:30am 10.7 NNE 9 11 1034.8 - 0.2 - - - - - - -
03/06:00am 10.8 NNE 9 12 1034.7 - 0.2 - - - - - - -
03/05:30am 10.9 NE 9 11 1034.7 - 0.2 - - - - - - -
03/05:00am 11.4 NE 8 10 1035.0 - 0.2 - - - - - - -
03/04:30am 11.8 NE 7 9 1034.9 - 0.2 - - - - - - -
03/04:00am 11.8 NE 8 10 1034.8 - 0.2 - - - - - - -
03/03:30am 11.8 NE 8 10 1034.7 - 0.2 - - - - - - -
03/03:00am 12.0 NE 9 11 1034.8 - 0.2 - - - - - - -
03/02:30am 11.9 NE 8 11 1034.8 - 0.2 - - - - - - -
03/02:00am 12.2 NE 7 9 1034.8 - 0.2 - - - - - - -
03/01:30am 11.7 NE 4 9 1034.8 - 0.2 - - - - - - -
03/01:00am 12.2 N 4 5 1034.8 - 0.2 - - - - - - -
03/12:30am 12.5 NE 4 5 1034.8 - 0.2 - - - - - - -
03/12:00am 12.4 NE 6 7 1034.7 - 0.2 - - - - - - -
 
Date/Time
WST
Temp

°C
Wind Pressure Rain
since 9am
mm
Weather Cloud Vis
km
Sea
Height
m
Swell
Dir
 
Speed
knots
Gust
knots
hPa Trend Height
m
Period
s
Dir
02/11:30pm 12.7 NE 8 10 1034.9 - 0.2 - - - - - - -
02/11:00pm 12.2 NE 7 10 1035.0 - 0.2 - - - - - - -
02/10:30pm 12.5 NE 9 11 1035.2 - 0.2 - - - - - - -
02/10:00pm 14.0 SE 9 11 1035.3 - 0.2 - - - - - - -
02/09:30pm 14.2 SE 10 14 1035.4 - 0.2 - - - - - - -
02/09:00pm 14.1 SE 10 14 1035.3 - 0.2 - - - - - - -
02/08:30pm 13.8 ESE 12 15 1035.2 - 0.2 - - - - - - -
02/08:00pm 13.4 SE 9 13 1035.2 - 0.2 - - - - - - -
02/07:30pm 13.1 ESE 8 11 1035.3 - 0.2 - - - - - - -
02/07:00pm 13.1 S 6 11 1035.2 - 0.2 - - - - - - -

Other Formats:

Comma delimited format used in spreadsheet applications
http://www.bom.gov.au/fwo/IDW60701/IDW60701.94601.axf

JavaScript Object Notation format (JSON) in row-major order
http://www.bom.gov.au/fwo/IDW60701/IDW60701.94601.json